Time;durP1;ratioP1;P1;durP2;ratioP2;P2;SDS_P1;SDS_P2;PMS_P1;PMS_P2;Temp;Humidity;BMP_temperature;BMP_pressure;BME280_temperature;BME280_humidity;BME280_pressure;Samples;Min_cycle;Max_cycle;Signal;HPM_P1;HPM_P2
2021/10/11 00:02:03;;;;;;;18.52;10.85;;;;;;;2.16;85.33;98263.91;5034914;28;20067;-78
2021/10/11 00:04:28;;;;;;;20.95;11.20;;;;;;;2.09;85.70;98249.56;5050840;28;20031;-78
2021/10/11 00:06:54;;;;;;;19.48;12.88;;;;;;;2.19;85.17;98265.38;5030848;28;20111;-77
2021/10/11 00:09:20;;;;;;;20.95;13.52;;;;;;;2.31;85.37;98263.16;5029874;28;20067;-77
2021/10/11 00:11:46;;;;;;;20.05;12.93;;;;;;;2.38;85.19;98261.44;5030875;28;20028;-77
2021/10/11 00:14:12;;;;;;;19.92;11.43;;;;;;;2.43;85.05;98264.41;5019522;28;20059;-77
2021/10/11 00:16:38;;;;;;;20.05;12.25;;;;;;;2.40;84.37;98266.63;5036661;28;20033;-77
2021/10/11 00:19:05;;;;;;;20.60;12.23;;;;;;;2.40;84.75;98272.78;5030775;28;20112;-77
2021/10/11 00:21:31;;;;;;;13.27;9.85;;;;;;;2.30;84.69;98264.16;5029910;28;20372;-77
2021/10/11 00:23:57;;;;;;;18.75;12.45;;;;;;;2.26;85.29;98269.03;5046915;28;20029;-77
2021/10/11 00:26:22;;;;;;;14.68;9.13;;;;;;;2.29;85.24;98265.19;5029543;28;20073;-77
2021/10/11 00:28:48;;;;;;;19.58;13.48;;;;;;;2.41;84.79;98263.75;5045535;28;20078;-77
2021/10/11 00:31:14;;;;;;;19.52;13.00;;;;;;;2.44;85.17;98265.25;5031458;28;20017;-78
2021/10/11 00:33:40;;;;;;;20.38;13.15;;;;;;;2.54;84.36;98268.50;5032927;28;20024;-78
2021/10/11 00:36:05;;;;;;;22.55;12.85;;;;;;;2.60;84.45;98261.63;5033744;28;20486;-78
2021/10/11 00:38:31;;;;;;;20.27;11.98;;;;;;;2.43;84.81;98253.72;5029902;28;20021;-78
2021/10/11 00:40:57;;;;;;;18.95;11.68;;;;;;;2.43;85.28;98256.38;5044547;28;20318;-78
2021/10/11 00:43:23;;;;;;;18.48;10.13;;;;;;;2.30;85.37;98248.13;5050710;28;20036;-78
2021/10/11 00:45:49;;;;;;;19.35;11.48;;;;;;;2.26;85.22;98249.50;5030142;28;20033;-78
2021/10/11 00:48:15;;;;;;;22.45;12.48;;;;;;;2.25;85.35;98243.28;5022844;28;20055;-78
2021/10/11 00:50:40;;;;;;;19.70;12.50;;;;;;;2.29;85.01;98241.94;5028876;28;20068;-78
2021/10/11 00:53:06;;;;;;;10.05;6.00;;;;;;;2.14;85.17;98246.38;5033195;28;20100;-78
2021/10/11 00:55:32;;;;;;;19.02;11.93;;;;;;;1.98;85.63;98244.66;5032227;28;20623;-78
2021/10/11 00:57:58;;;;;;;11.63;7.50;;;;;;;1.85;85.85;98238.03;5049044;28;20094;-78
2021/10/11 01:00:24;;;;;;;11.23;6.10;;;;;;;1.69;86.20;98241.56;5032964;28;20086;-78
2021/10/11 01:02:50;;;;;;;17.20;9.30;;;;;;;1.65;86.37;98238.44;5050468;28;20028;-77
2021/10/11 01:05:16;;;;;;;13.07;8.00;;;;;;;1.72;86.47;98245.75;5032771;28;20040;-78
2021/10/11 01:07:41;;;;;;;18.98;12.20;;;;;;;1.78;85.93;98248.56;5047507;28;20029;-78
2021/10/11 01:10:08;;;;;;;20.77;12.48;;;;;;;1.82;85.83;98243.72;5020366;28;20061;-78
2021/10/11 01:12:34;;;;;;;16.30;8.43;;;;;;;1.71;86.00;98238.75;5028078;28;20025;-78
2021/10/11 01:15:00;;;;;;;20.42;13.23;;;;;;;1.69;86.34;98229.06;5030074;28;20028;-78
2021/10/11 01:17:25;;;;;;;14.50;8.68;;;;;;;1.79;86.61;98228.03;5045058;28;20562;-78
2021/10/11 01:19:55;;;;;;;13.48;7.47;;;;;;;1.89;86.70;98226.00;5051808;28;20096;-78
2021/10/11 01:22:21;;;;;;;23.02;13.52;;;;;;;2.03;86.06;98239.59;5048070;28;20036;-78
2021/10/11 01:24:47;;;;;;;21.02;12.77;;;;;;;1.98;85.99;98241.97;5031267;28;20154;-78
2021/10/11 01:27:15;;;;;;;14.65;8.40;;;;;;;1.94;85.90;98234.31;5031762;28;20063;-78
2021/10/11 01:29:41;;;;;;;18.38;10.75;;;;;;;1.84;85.96;98244.34;5029393;28;20514;-78
2021/10/11 01:32:07;;;;;;;15.52;9.70;;;;;;;1.81;85.63;98240.19;5047488;28;20068;-78
2021/10/11 01:34:33;;;;;;;20.52;13.02;;;;;;;1.78;85.95;98231.72;5014350;28;20060;-77
2021/10/11 01:37:01;;;;;;;20.85;13.02;;;;;;;1.77;85.79;98238.88;5030158;28;20029;-77
2021/10/11 01:39:27;;;;;;;19.48;11.68;;;;;;;1.77;86.35;98240.72;5029013;28;20036;-76
2021/10/11 01:41:54;;;;;;;23.25;13.57;;;;;;;1.86;86.03;98237.00;5028478;28;20411;-77
2021/10/11 01:44:19;;;;;;;21.05;11.43;;;;;;;1.88;86.16;98234.97;5045920;28;20024;-77
2021/10/11 01:46:45;;;;;;;20.33;12.40;;;;;;;1.86;86.14;98238.84;5043749;28;20079;-77
2021/10/11 01:49:11;;;;;;;18.77;10.80;;;;;;;1.80;86.11;98233.19;5027448;28;20118;-77
2021/10/11 01:51:37;;;;;;;24.33;13.07;;;;;;;1.84;86.24;98235.53;5041878;28;20025;-77
2021/10/11 01:54:02;;;;;;;18.17;11.52;;;;;;;1.80;86.42;98232.34;5028913;28;20720;-77
2021/10/11 01:56:28;;;;;;;19.30;12.20;;;;;;;1.76;86.31;98223.03;5041611;28;20038;-77
2021/10/11 01:58:53;;;;;;;21.70;12.77;;;;;;;1.86;86.16;98226.31;5036535;28;20466;-77
2021/10/11 02:01:19;;;;;;;20.23;11.98;;;;;;;1.76;86.23;98215.84;5024739;28;20029;-76
2021/10/11 02:03:44;;;;;;;20.17;12.32;;;;;;;1.79;86.23;98212.00;5036044;28;20524;-77
2021/10/11 02:06:10;;;;;;;8.82;5.70;;;;;;;1.66;85.94;98216.06;5043939;28;20055;-77
2021/10/11 02:08:35;;;;;;;17.92;11.00;;;;;;;1.68;86.05;98218.56;5024442;28;20060;-77
2021/10/11 02:11:01;;;;;;;13.05;9.95;;;;;;;1.63;85.62;98218.25;5035565;28;20119;-77
2021/10/11 02:13:27;;;;;;;23.27;14.38;;;;;;;1.52;86.10;98219.47;5028041;28;20400;-77
2021/10/11 02:15:53;;;;;;;15.73;8.82;;;;;;;1.51;86.70;98217.81;5033753;28;20112;-77
2021/10/11 02:18:18;;;;;;;20.17;12.68;;;;;;;1.44;85.93;98215.00;5039012;28;20120;-78
2021/10/11 02:20:44;;;;;;;18.25;12.82;;;;;;;1.40;86.31;98214.50;5032029;28;20056;-78
2021/10/11 02:23:10;;;;;;;22.17;11.60;;;;;;;1.41;86.84;98207.31;5050897;28;20090;-78
2021/10/11 02:25:35;;;;;;;20.13;12.50;;;;;;;1.44;86.40;98212.34;5029999;28;20508;-78
2021/10/11 02:28:01;;;;;;;13.93;8.57;;;;;;;1.41;86.81;98215.34;5048633;28;20091;-78
2021/10/11 02:30:26;;;;;;;21.63;8.25;;;;;;;1.51;86.84;98215.97;5030896;28;20098;-78
2021/10/11 02:32:52;;;;;;;12.00;6.20;;;;;;;1.41;86.45;98205.47;5031666;28;20036;-78
2021/10/11 02:35:19;;;;;;;18.73;11.10;;;;;;;1.56;86.66;98210.94;5031195;28;20404;-78
2021/10/11 02:37:45;;;;;;;24.70;14.20;;;;;;;1.65;86.66;98209.06;5055939;28;20025;-78
2021/10/11 02:40:11;;;;;;;24.98;13.82;;;;;;;1.70;86.02;98203.22;5047878;28;20083;-78
2021/10/11 02:42:37;;;;;;;21.85;13.20;;;;;;;1.76;85.68;98197.16;5031571;28;20507;-79
2021/10/11 02:45:04;;;;;;;21.15;13.27;;;;;;;1.72;86.07;98203.00;5048447;28;20041;-78
2021/10/11 02:47:29;;;;;;;16.02;10.23;;;;;;;1.71;85.68;98209.38;5031289;28;20043;-78
2021/10/11 02:49:54;;;;;;;17.45;10.35;;;;;;;1.67;85.85;98204.38;5028086;28;20029;-78
2021/10/11 02:52:20;;;;;;;21.13;12.70;;;;;;;1.65;86.26;98209.06;5028148;28;20029;-78
2021/10/11 02:54:46;;;;;;;20.40;13.98;;;;;;;1.71;85.32;98206.69;5030194;28;20040;-78
2021/10/11 02:57:12;;;;;;;19.67;12.32;;;;;;;1.68;85.11;98206.06;5030717;28;20039;-78
2021/10/11 02:59:37;;;;;;;17.38;10.75;;;;;;;1.61;85.35;98204.22;5031760;28;20025;-78
2021/10/11 03:02:03;;;;;;;20.13;13.18;;;;;;;1.53;85.33;98200.63;5030802;28;20040;-77
2021/10/11 03:04:29;;;;;;;18.30;9.52;;;;;;;1.50;85.37;98200.09;5031534;28;20052;-78
2021/10/11 03:06:55;;;;;;;11.65;6.97;;;;;;;1.47;85.63;98193.28;5049002;28;20089;-78
2021/10/11 03:09:20;;;;;;;12.05;6.90;;;;;;;1.25;86.56;98197.53;5031337;28;20021;-78
2021/10/11 03:11:49;;;;;;;22.35;12.68;;;;;;;1.34;86.21;98193.84;5033038;28;20068;-78
2021/10/11 03:14:15;;;;;;;18.73;11.40;;;;;;;1.43;85.81;98190.13;5035136;28;20520;-78
2021/10/11 03:16:41;;;;;;;17.75;10.93;;;;;;;1.33;86.11;98186.84;5052069;28;20029;-78
2021/10/11 03:19:06;;;;;;;16.15;10.13;;;;;;;1.19;86.43;98179.53;5031723;28;20029;-78
2021/10/11 03:21:31;;;;;;;17.85;10.90;;;;;;;1.15;86.77;98174.53;5034541;28;20059;-78
2021/10/11 03:23:57;;;;;;;16.73;9.18;;;;;;;1.10;86.87;98168.09;5030768;28;20071;-78
2021/10/11 03:26:23;;;;;;;21.15;11.48;;;;;;;1.14;86.96;98158.72;5030113;28;20535;-77
2021/10/11 03:28:49;;;;;;;19.98;11.75;;;;;;;1.14;87.26;98153.41;5035240;28;20170;-78
2021/10/11 03:31:14;;;;;;;13.95;8.30;;;;;;;1.16;87.11;98156.72;5034623;28;20028;-78
2021/10/11 03:33:40;;;;;;;24.40;12.43;;;;;;;1.15;86.93;98163.88;5050193;28;20029;-78
2021/10/11 03:36:07;;;;;;;11.98;7.55;;;;;;;1.15;86.60;98163.88;5034940;28;20496;-78
2021/10/11 03:38:33;;;;;;;22.00;12.65;;;;;;;0.88;86.99;98154.44;5034852;28;20029;-78
2021/10/11 03:40:58;;;;;;;13.77;8.15;;;;;;;0.84;86.82;98156.63;5034435;28;20048;-78
2021/10/11 03:43:24;;;;;;;9.98;7.10;;;;;;;0.80;87.34;98143.81;5034703;28;20058;-78
2021/10/11 03:45:50;;;;;;;17.27;10.38;;;;;;;0.75;87.04;98145.16;5031778;28;20036;-78
2021/10/11 03:48:20;;;;;;;12.60;7.75;;;;;;;0.80;87.34;98143.81;5028423;28;20033;-77
2021/10/11 03:50:46;;;;;;;14.90;10.02;;;;;;;0.86;87.67;98151.13;5032859;28;20036;-78
2021/10/11 03:53:13;;;;;;;15.95;9.70;;;;;;;1.00;87.66;98144.25;5034022;28;20101;-78
2021/10/11 03:55:40;;;;;;;23.65;13.57;;;;;;;1.11;87.53;98151.06;5050420;28;20029;-78
2021/10/11 03:58:06;;;;;;;22.77;13.73;;;;;;;1.13;86.76;98154.38;5050996;28;20051;-78
2021/10/11 04:00:32;;;;;;;16.05;10.85;;;;;;;1.07;86.55;98155.06;5050153;28;20025;-78
2021/10/11 04:03:02;;;;;;;28.90;15.88;;;;;;;1.06;86.84;98159.56;5033761;28;20074;-78
2021/10/11 04:05:28;;;;;;;23.00;13.38;;;;;;;1.09;86.69;98161.91;5030697;28;20403;-77
2021/10/11 04:07:57;;;;;;;26.13;15.07;;;;;;;1.09;86.69;98164.56;5030327;28;20045;-78
2021/10/11 04:10:33;;;;;;;28.85;15.25;;;;;;;1.12;86.02;98174.06;5031722;28;20029;-77
2021/10/11 04:13:04;;;;;;;21.20;13.43;;;;;;;1.19;85.96;98182.22;5054705;28;20036;-77
2021/10/11 04:15:30;;;;;;;19.23;12.35;;;;;;;1.20;85.58;98179.38;5031655;28;20044;-78
2021/10/11 04:17:56;;;;;;;17.80;11.07;;;;;;;1.11;85.79;98186.56;5028398;28;20037;-77
2021/10/11 04:20:22;;;;;;;16.35;10.18;;;;;;;0.81;86.15;98180.13;5029142;28;20032;-77
2021/10/11 04:22:48;;;;;;;15.57;10.02;;;;;;;0.83;86.42;98176.28;5028134;28;20037;-77
2021/10/11 04:25:14;;;;;;;19.92;12.57;;;;;;;0.90;86.73;98184.44;5028860;28;20090;-77
2021/10/11 04:27:43;;;;;;;25.10;15.45;;;;;;;1.03;86.50;98184.75;5027219;28;20033;-77
2021/10/11 04:30:09;;;;;;;22.42;13.18;;;;;;;1.08;86.28;98186.06;5028513;28;20120;-76
2021/10/11 04:32:35;;;;;;;20.38;11.88;;;;;;;1.03;86.86;98186.56;5029269;28;20036;-77
2021/10/11 04:35:01;;;;;;;24.85;12.68;;;;;;;0.94;86.53;98180.44;5045559;28;20032;-77
2021/10/11 04:37:26;;;;;;;14.93;9.75;;;;;;;0.94;86.87;98182.25;5028976;28;20131;-76
2021/10/11 04:39:52;;;;;;;21.20;12.40;;;;;;;1.13;86.31;98176.56;5062056;28;20443;-77
2021/10/11 04:42:18;;;;;;;21.65;13.05;;;;;;;1.14;86.06;98178.22;5046298;28;20503;-77
2021/10/11 04:44:43;;;;;;;23.70;12.43;;;;;;;1.21;86.01;98182.88;5044361;28;20039;-77
2021/10/11 04:47:08;;;;;;;25.02;14.07;;;;;;;1.21;86.21;98189.03;5039800;28;20075;-77
2021/10/11 04:49:34;;;;;;;22.73;13.65;;;;;;;1.28;85.93;98192.69;5041162;28;20033;-76
2021/10/11 04:52:00;;;;;;;19.13;12.07;;;;;;;1.30;86.22;98204.00;5022884;28;20051;-76
2021/10/11 04:54:25;;;;;;;23.67;11.82;;;;;;;1.29;86.33;98198.88;5024936;28;20029;-76
2021/10/11 04:56:51;;;;;;;21.23;13.00;;;;;;;1.29;85.88;98201.53;5021992;28;20035;-77
2021/10/11 04:59:17;;;;;;;17.92;10.88;;;;;;;1.19;86.61;98208.88;5027721;28;20401;-77
2021/10/11 05:01:42;;;;;;;20.33;12.40;;;;;;;1.26;85.83;98204.53;5026941;28;20037;-77
2021/10/11 05:04:08;;;;;;;20.02;13.60;;;;;;;1.30;86.21;98204.00;5027909;28;20040;-77
2021/10/11 05:06:34;;;;;;;21.85;13.20;;;;;;;1.40;85.64;98203.00;5046241;28;20097;-75
2021/10/11 05:09:00;;;;;;;21.38;12.60;;;;;;;1.46;85.58;98193.44;5026758;28;20044;-77
2021/10/11 05:11:29;;;;;;;21.05;13.10;;;;;;;1.50;85.48;98192.09;5041079;28;20764;-77
2021/10/11 05:13:56;;;;;;;18.80;11.40;;;;;;;1.42;85.27;98198.31;5035627;28;20025;-77
2021/10/11 05:16:22;;;;;;;20.15;12.02;;;;;;;1.39;85.67;98191.47;5061139;28;20118;-77
2021/10/11 05:18:48;;;;;;;19.85;12.63;;;;;;;1.51;85.39;98188.44;5027799;28;20050;-77
2021/10/11 05:21:15;;;;;;;18.50;11.98;;;;;;;1.55;85.28;98198.59;5028396;28;20037;-77
2021/10/11 05:23:41;;;;;;;19.67;12.38;;;;;;;1.54;85.17;98199.59;5024766;28;20022;-77
2021/10/11 05:26:06;;;;;;;21.88;11.80;;;;;;;1.60;85.00;98197.25;5040839;28;20028;-77
2021/10/11 05:28:32;;;;;;;18.83;11.65;;;;;;;1.54;84.57;98204.94;5042390;28;20039;-76
2021/10/11 05:30:58;;;;;;;16.98;10.70;;;;;;;1.27;85.15;98203.53;5040975;28;20031;-77
2021/10/11 05:33:24;;;;;;;12.48;6.40;;;;;;;1.12;85.38;98198.91;5025511;28;20028;-77
2021/10/11 05:35:50;;;;;;;19.30;11.68;;;;;;;1.20;85.34;98194.53;5023421;28;20087;-76
2021/10/11 05:38:16;;;;;;;20.65;11.98;;;;;;;1.22;85.36;98197.88;5023319;28;20037;-77
2021/10/11 05:40:42;;;;;;;19.63;11.90;;;;;;;1.23;85.83;98203.06;5025116;28;20036;-77
2021/10/11 05:43:08;;;;;;;18.73;11.32;;;;;;;1.32;85.37;98198.50;5025121;28;20029;-77
2021/10/11 05:45:33;;;;;;;19.13;12.23;;;;;;;1.40;85.13;98201.16;5041352;28;20632;-77
2021/10/11 05:47:59;;;;;;;20.55;11.75;;;;;;;1.46;84.53;98209.47;5043176;28;20583;-77
2021/10/11 05:50:25;;;;;;;19.75;10.48;;;;;;;1.40;84.55;98203.81;5024950;28;20123;-77
2021/10/11 05:52:50;;;;;;;19.75;12.77;;;;;;;1.35;84.80;98213.34;5042501;28;20039;-77
2021/10/11 05:55:16;;;;;;;22.75;12.73;;;;;;;1.28;84.99;98214.03;5038749;28;20102;-77
2021/10/11 05:57:42;;;;;;;17.75;10.10;;;;;;;1.25;84.99;98216.22;5025183;28;20106;-76
2021/10/11 06:00:08;;;;;;;19.52;12.27;;;;;;;1.16;85.24;98229.59;5041034;28;20112;-76
2021/10/11 06:02:34;;;;;;;17.25;9.40;;;;;;;1.16;85.41;98231.41;5037748;28;20466;-76
2021/10/11 06:05:01;;;;;;;20.52;13.00;;;;;;;1.18;85.52;98229.38;5041939;28;20035;-76
2021/10/11 06:07:27;;;;;;;14.77;9.52;;;;;;;1.21;85.69;98226.38;5021455;28;20037;-76
2021/10/11 06:09:54;;;;;;;21.08;12.32;;;;;;;1.34;85.50;98235.69;5018248;28;20031;-77
2021/10/11 06:12:19;;;;;;;19.38;11.38;;;;;;;1.42;85.28;98231.19;5043882;28;20079;-77
2021/10/11 06:14:44;;;;;;;23.92;12.05;;;;;;;1.43;85.31;98238.19;5043312;28;20523;-76
2021/10/11 06:17:10;;;;;;;20.23;11.40;;;;;;;1.43;85.38;98240.00;5027509;28;20079;-77
2021/10/11 06:19:36;;;;;;;7.22;4.18;;;;;;;1.42;85.41;98239.19;5027057;28;20051;-77
2021/10/11 06:22:01;;;;;;;11.95;7.10;;;;;;;1.45;85.35;98237.16;5043235;28;20028;-77
2021/10/11 06:24:26;;;;;;;10.60;6.32;;;;;;;1.52;85.41;98240.81;5043191;28;20033;-76
2021/10/11 06:26:52;;;;;;;13.40;7.70;;;;;;;1.58;85.11;98245.47;5060097;28;20040;-77
2021/10/11 06:29:18;;;;;;;15.45;7.60;;;;;;;1.59;85.37;98244.47;5026563;28;20106;-77
2021/10/11 06:31:43;;;;;;;9.35;5.82;;;;;;;1.63;85.40;98243.13;5026699;28;20036;-76
2021/10/11 06:34:09;;;;;;;16.50;9.32;;;;;;;1.67;85.54;98238.25;5043965;28;20323;-76
2021/10/11 06:36:35;;;;;;;12.18;6.70;;;;;;;1.68;85.12;98243.44;5027574;28;20116;-77
2021/10/11 06:39:02;;;;;;;14.43;9.18;;;;;;;1.79;85.19;98228.03;5044431;28;20768;-78
2021/10/11 06:41:28;;;;;;;19.20;8.73;;;;;;;1.83;84.81;98234.69;5044695;28;20063;-77
2021/10/11 06:43:54;;;;;;;22.10;11.95;;;;;;;1.93;85.19;98229.97;5044727;28;20064;-77
2021/10/11 06:46:19;;;;;;;15.70;8.65;;;;;;;2.02;84.39;98229.91;5047904;28;20450;-77
2021/10/11 06:48:52;;;;;;;19.17;11.63;;;;;;;2.04;84.81;98230.56;5032280;28;20086;-77
2021/10/11 06:51:17;;;;;;;16.65;8.60;;;;;;;1.97;84.59;98229.59;5031562;28;20032;-77
2021/10/11 06:53:43;;;;;;;14.13;8.20;;;;;;;1.98;84.41;98236.63;5059680;28;20048;-76
2021/10/11 06:56:08;;;;;;;9.65;5.20;;;;;;;2.04;84.58;98238.59;5062685;28;20036;-77
2021/10/11 06:58:34;;;;;;;10.23;6.03;;;;;;;2.11;84.53;98241.38;5051193;28;20087;-77
2021/10/11 07:01:00;;;;;;;15.55;9.52;;;;;;;2.16;84.83;98237.19;5031170;28;20024;-77
2021/10/11 07:03:26;;;;;;;14.65;8.93;;;;;;;2.24;84.81;98238.16;5057269;28;20029;-75
2021/10/11 07:05:55;;;;;;;11.02;6.75;;;;;;;2.29;84.34;98238.44;5044129;28;20039;-76
2021/10/11 07:08:23;;;;;;;15.88;9.50;;;;;;;2.53;84.02;98244.63;5060894;28;20032;-76
2021/10/11 07:10:53;;;;;;;17.00;9.60;;;;;;;2.73;83.90;98245.81;5041061;28;20036;-77
2021/10/11 07:13:19;;;;;;;10.32;6.40;;;;;;;2.86;83.70;98250.56;5048991;28;20544;-77
2021/10/11 07:15:44;;;;;;;18.95;11.52;;;;;;;2.94;83.23;98249.66;5028498;28;20116;-77
2021/10/11 07:18:10;;;;;;;14.90;8.70;;;;;;;3.07;82.92;98254.41;5029677;28;20397;-76
2021/10/11 07:20:40;;;;;;;8.38;6.80;;;;;;;3.22;83.11;98249.06;5027392;28;20025;-79
2021/10/11 07:23:07;;;;;;;15.23;10.13;;;;;;;3.41;83.05;98252.22;5028364;28;20062;-77
2021/10/11 07:25:32;;;;;;;19.77;8.75;;;;;;;3.66;82.52;98245.75;5040957;28;20029;-77
2021/10/11 07:27:59;;;;;;;10.52;6.25;;;;;;;3.89;81.74;98245.63;5029268;28;20029;-77
2021/10/11 07:30:25;;;;;;;14.05;8.13;;;;;;;4.12;81.15;98242.81;5045687;28;20408;-77
2021/10/11 07:32:50;;;;;;;16.42;9.85;;;;;;;4.28;81.11;98251.66;5029606;28;20025;-77
2021/10/11 07:35:16;;;;;;;10.30;6.78;;;;;;;4.48;81.22;98251.03;5048140;28;20030;-78
2021/10/11 07:37:42;;;;;;;17.65;9.95;;;;;;;4.75;80.81;98268.22;5028522;28;20033;-78
2021/10/11 07:40:10;;;;;;;15.65;9.13;;;;;;;4.99;80.10;98278.75;5044929;28;20025;-77
2021/10/11 07:42:36;;;;;;;14.25;7.85;;;;;;;5.19;79.13;98279.75;5027721;28;20115;-77
2021/10/11 07:45:02;;;;;;;14.88;9.55;;;;;;;5.57;79.44;98272.38;5029148;28;20120;-78
2021/10/11 07:47:28;;;;;;;12.25;8.35;;;;;;;5.89;78.73;98275.41;5025773;28;20040;-78
2021/10/11 07:49:53;;;;;;;14.27;8.93;;;;;;;6.28;76.62;98283.91;5043577;28;20032;-78
2021/10/11 07:52:19;;;;;;;14.30;7.70;;;;;;;6.40;75.42;98283.31;5046861;28;20025;-77
2021/10/11 07:54:45;;;;;;;14.48;8.63;;;;;;;6.68;75.43;98290.41;5031031;28;20036;-80
2021/10/11 07:57:10;;;;;;;15.82;8.85;;;;;;;6.86;74.97;98300.59;5045032;28;20252;-79
2021/10/11 07:59:36;;;;;;;15.80;8.43;;;;;;;6.87;74.57;98297.72;5040582;28;20128;-80
2021/10/11 08:02:02;;;;;;;12.13;8.30;;;;;;;7.05;73.08;98296.28;5031187;28;20039;-78
2021/10/11 08:04:28;;;;;;;13.57;8.70;;;;;;;7.23;73.37;98303.72;5029369;28;20040;-79
2021/10/11 08:06:54;;;;;;;12.73;9.13;;;;;;;7.43;72.78;98294.81;5031046;28;20032;-78
2021/10/11 08:09:19;;;;;;;15.15;8.50;;;;;;;7.51;73.32;98288.38;5029767;28;20067;-78
2021/10/11 08:11:46;;;;;;;15.50;8.98;;;;;;;7.71;72.71;98292.91;5046883;28;20033;-79
2021/10/11 08:14:12;;;;;;;16.08;9.60;;;;;;;7.99;72.04;98289.94;5046910;28;20436;-79
2021/10/11 08:16:38;;;;;;;16.70;9.05;;;;;;;8.29;71.83;98284.00;5045187;28;20036;-78
2021/10/11 08:19:04;;;;;;;14.98;8.02;;;;;;;8.59;71.94;98279.97;5031379;28;20127;-77
2021/10/11 08:21:30;;;;;;;13.57;8.55;;;;;;;8.57;69.93;98279.34;5037146;28;20037;-75
2021/10/11 08:23:56;;;;;;;12.27;8.65;;;;;;;9.09;70.36;98281.91;5044850;28;20143;-78
2021/10/11 08:26:22;;;;;;;16.40;8.85;;;;;;;9.39;68.04;98288.50;5039352;28;20682;-80
2021/10/11 08:28:48;;;;;;;16.08;9.30;;;;;;;9.82;68.55;98280.63;5024835;28;20119;-80
2021/10/11 08:31:14;;;;;;;13.95;9.32;;;;;;;10.07;66.50;98285.13;5042785;28;20029;-79
2021/10/11 08:33:40;;;;;;;17.17;8.70;;;;;;;10.15;65.73;98285.63;5022904;28;20265;-80
2021/10/11 08:36:05;;;;;;;14.50;9.20;;;;;;;10.41;65.42;98288.25;5026384;28;20028;-79
2021/10/11 08:38:32;;;;;;;19.90;9.57;;;;;;;10.57;64.69;98292.22;5043447;28;20074;-79
2021/10/11 08:40:58;;;;;;;15.90;9.05;;;;;;;10.98;62.86;98286.25;5042436;28;20120;-76
2021/10/11 08:43:23;;;;;;;12.43;8.98;;;;;;;11.13;61.71;98283.09;5026124;28;20036;-75
2021/10/11 08:45:54;;;;;;;14.48;8.45;;;;;;;11.28;61.11;98278.03;5024637;28;20021;-75
2021/10/11 08:48:20;;;;;;;13.25;8.18;;;;;;;11.58;60.82;98279.03;5041915;28;20025;-75
2021/10/11 08:50:46;;;;;;;13.55;8.80;;;;;;;11.44;61.68;98273.84;5042316;28;20037;-75
2021/10/11 08:53:13;;;;;;;12.50;7.70;;;;;;;12.01;61.51;98274.25;5025316;28;20123;-75
2021/10/11 08:55:39;;;;;;;12.88;8.10;;;;;;;12.21;61.07;98267.63;5042566;28;20080;-75
2021/10/11 08:58:08;;;;;;;13.13;8.27;;;;;;;12.22;59.08;98267.38;5023073;28;20116;-75
2021/10/11 09:00:36;;;;;;;14.40;8.52;;;;;;;12.12;58.86;98260.94;5028237;28;20107;-75
2021/10/11 09:03:02;;;;;;;16.65;8.70;;;;;;;12.16;58.06;98262.91;5043986;28;20503;-75
2021/10/11 09:05:36;;;;;;;10.30;7.53;;;;;;;12.38;58.80;98259.53;5042597;28;20056;-75
2021/10/11 09:08:06;;;;;;;13.65;8.98;;;;;;;12.32;59.84;98255.06;5048048;28;20029;-75
2021/10/11 09:10:50;;;;;;;12.73;8.32;;;;;;;12.53;58.02;98253.56;5039798;28;20856;-75
2021/10/11 09:13:15;;;;;;;16.23;10.10;;;;;;;12.28;58.75;98251.19;5039403;28;20028;-75
2021/10/11 09:15:41;;;;;;;13.93;9.73;;;;;;;12.39;58.56;98250.34;5023203;28;20025;-75
2021/10/11 09:18:09;;;;;;;18.63;11.88;;;;;;;12.38;60.10;98258.72;5020466;28;20071;-75
2021/10/11 09:20:39;;;;;;;15.90;11.05;;;;;;;12.44;57.38;98260.44;5059073;28;20436;-75
2021/10/11 09:23:05;;;;;;;14.95;10.23;;;;;;;12.39;57.59;98260.38;5055780;28;20033;-75
2021/10/11 09:25:36;;;;;;;19.75;12.05;;;;;;;12.54;57.67;98270.69;5033305;28;20475;-75
2021/10/11 09:28:04;;;;;;;16.52;11.55;;;;;;;12.88;57.65;98274.31;5025897;28;20496;-75
2021/10/11 09:30:35;;;;;;;19.38;11.95;;;;;;;12.99;55.55;98267.16;5025601;28;20045;-75
2021/10/11 09:33:20;;;;;;;20.00;11.50;;;;;;;13.02;57.55;98268.56;5058172;28;20049;-75
2021/10/11 09:35:48;;;;;;;16.60;10.18;;;;;;;13.07;55.13;98273.25;5026036;28;20361;-75
2021/10/11 09:38:27;;;;;;;15.18;10.05;;;;;;;13.36;54.29;98267.75;5025557;28;20163;-76
2021/10/11 09:40:58;;;;;;;15.27;9.40;;;;;;;13.88;53.64;98257.63;5031518;28;20719;-75
2021/10/11 09:43:27;;;;;;;13.30;9.10;;;;;;;14.00;54.10;98263.78;5034811;28;20037;-75
2021/10/11 09:45:53;;;;;;;14.48;9.25;;;;;;;14.42;50.81;98259.63;5042522;28;20021;-75
2021/10/11 09:48:19;;;;;;;23.33;10.63;;;;;;;14.81;52.04;98266.06;5041933;28;20087;-76
2021/10/11 09:50:46;;;;;;;15.98;10.02;;;;;;;14.95;51.09;98264.56;5042502;28;20492;-75
2021/10/11 09:53:16;;;;;;;16.15;10.27;;;;;;;14.90;50.44;98261.81;5025355;28;20559;-75
2021/10/11 09:55:44;;;;;;;12.85;9.27;;;;;;;14.95;51.93;98259.13;5041943;28;20511;-75
2021/10/11 09:58:11;;;;;;;14.75;9.02;;;;;;;15.21;51.53;98258.50;5042310;28;20048;-74
2021/10/11 10:00:42;;;;;;;13.68;8.45;;;;;;;15.25;51.22;98261.56;5055220;28;20096;-75
2021/10/11 10:03:14;;;;;;;;;;;;;;;15.05;51.07;98266.59;5024215;28;20024;-75
2021/10/11 10:05:47;;;;;;;13.68;7.97;;;;;;;15.23;50.76;98264.53;5040968;28;20487;-75
2021/10/11 10:32:05;;;;;;;13.57;9.45;;;;;;;17.07;43.60;98240.47;5336831;23;20344;-81
2021/10/11 10:34:31;;;;;;;12.85;9.40;;;;;;;17.80;43.54;98239.28;4920662;29;20071;-81
2021/10/11 10:37:04;;;;;;;16.48;9.73;;;;;;;16.76;44.00;98228.38;4938102;28;20043;-81
2021/10/11 10:39:36;;;;;;;16.85;10.52;;;;;;;17.29;43.54;98234.72;4947145;29;20027;-81
2021/10/11 10:42:02;;;;;;;15.15;10.10;;;;;;;17.22;44.64;98234.19;4950667;28;20035;-81
2021/10/11 10:46:56;;;;;;;13.27;9.65;;;;;;;17.35;43.84;98230.03;4969264;28;20050;-74
2021/10/11 10:49:32;;;;;;;13.93;9.75;;;;;;;17.51;43.78;98234.41;4971136;28;20043;-75
2021/10/11 10:51:58;;;;;;;13.10;8.90;;;;;;;17.27;43.67;98226.78;4963054;28;20030;-75
2021/10/11 10:54:45;;;;;;;12.30;9.07;;;;;;;17.63;43.29;98225.09;4954006;28;20106;-74
2021/10/11 10:57:13;;;;;;;14.27;9.82;;;;;;;17.15;43.88;98232.53;4968397;28;20028;-75
2021/10/11 10:59:39;;;;;;;15.63;8.82;;;;;;;17.55;43.66;98215.53;4977612;28;20089;-75
2021/10/11 11:02:11;;;;;;;15.52;10.00;;;;;;;17.14;45.90;98222.69;4952720;28;20023;-75
2021/10/11 11:04:37;;;;;;;19.17;10.50;;;;;;;16.77;45.50;98227.28;4955803;28;20444;-75
2021/10/11 11:07:08;;;;;;;20.27;11.02;;;;;;;17.01;43.91;98215.00;4951330;28;20500;-75
2021/10/11 11:09:42;;;;;;;13.52;9.20;;;;;;;17.50;43.24;98210.88;4977572;28;20030;-75
2021/10/11 11:12:08;;;;;;;13.43;9.20;;;;;;;17.44;43.38;98212.00;4974180;28;20041;-75
2021/10/11 11:14:34;;;;;;;12.20;9.05;;;;;;;17.88;42.91;98215.97;4967338;28;20026;-75
2021/10/11 11:16:59;;;;;;;12.93;8.63;;;;;;;17.81;42.06;98212.72;4941600;28;20044;-75
2021/10/11 11:19:38;;;;;;;11.57;7.97;;;;;;;16.56;43.80;98210.03;4963618;28;20390;-74
2021/10/11 11:22:03;;;;;;;15.60;8.70;;;;;;;16.69;43.50;98214.16;4947036;28;20030;-75
2021/10/11 11:24:28;;;;;;;17.25;10.10;;;;;;;15.60;46.04;98219.22;4965058;28;20038;-74
2021/10/11 11:26:54;;;;;;;16.35;10.25;;;;;;;14.70;48.19;98208.69;4984082;28;20034;-75
2021/10/11 11:29:19;;;;;;;13.63;9.85;;;;;;;15.77;46.33;98201.84;4979394;28;20073;-74
2021/10/11 11:31:52;;;;;;;16.00;10.02;;;;;;;16.36;46.43;98197.97;4968938;28;20042;-74
2021/10/11 11:34:17;;;;;;;13.75;9.25;;;;;;;16.29;45.38;98199.31;4939619;28;20030;-74
2021/10/11 11:36:54;;;;;;;16.98;10.45;;;;;;;16.73;44.78;98192.56;4959246;28;20041;-75
2021/10/11 11:39:20;;;;;;;17.25;10.00;;;;;;;16.56;44.86;98192.81;4967408;28;20671;-75
2021/10/11 11:41:53;;;;;;;15.23;9.35;;;;;;;16.51;43.01;98199.91;4959425;28;20084;-74
2021/10/11 11:44:26;;;;;;;16.00;9.38;;;;;;;16.28;45.26;98193.03;4971581;28;20026;-75
2021/10/11 11:47:04;;;;;;;15.40;10.40;;;;;;;16.95;45.84;98199.69;4950952;28;20030;-74
2021/10/11 11:49:30;;;;;;;13.27;9.02;;;;;;;16.93;43.75;98197.22;4969424;28;20559;-75
2021/10/11 11:52:13;;;;;;;18.08;10.02;;;;;;;16.31;45.63;98197.97;4954301;28;20061;-75